KAIA/AIA METAR and TAF weather

Enter ICAO airport designator
Station Type Date Time Source
KAIA METAR 2020/06/05 10:53 UTC NOAA

KAIA 051053Z AUTO 10SM CLR 12/11 A2996 RMK AO2 SLP109 T01170111 $


Station Type Date Time Source
KAIA Decoded METAR 2020/06/05 10:53 UTC NOAA

ALLIANCE MUNICIPAL AIRPORT, NE, United States (KAIA) 42-03N 102-48W 1196M
Jun 05, 2020 - 06:53 AM EDT / 2020.06.05 1053 UTC
Visibility: 10 mile(s):0
Sky conditions: clear
Temperature: 53.1 F (11.7 C)
Dew Point: 52.0 F (11.1 C)
Relative Humidity: 96%
Pressure (altimeter): 29.96 in. Hg (1014 hPa)
ob: KAIA 051053Z AUTO 10SM CLR 12/11 A2996 RMK AO2 SLP109 T01170111
cycle: 11

Station Type Date Time Source
KAIA TAF 2020/06/05 06:24 UTC NOAA

TAF KAIA 050521Z 0506/0606 03006KT P6SM SKC
FM051100 36007KT 6SM BR BKN015
FM051300 03008KT P6SM SCT250
FM051600 13011KT P6SM SKC
FM051800 15012G22KT P6SM BKN250
AMD LTD TO WX CLD AND VIS

Example: see airport list